Tiempo atmosférico en la estación meteorológica de Labastida, Araba/Álava (610 m.)



Fecha
DESCASC
Temp. máxima en grados centígrados (hora)
DESCASC
Temp. mínima en grados centígrados (hora)
DESCASC
Temp. media en grados centígrados
DESCASC
Racha de viento máxima en m/sg (hora)
DESCASC
Velocidad máxima media en intervalos de 10 minutos(hora)
DESCASC
Precipitaciones diarias en mm
DESCASC
Precipitaciones de 00:00 a 06:00 en mm
DESCASC
Precipitaciones de 06:00 a 12:00 en mm
DESCASC
Precipitaciones de 12:00 a 18:00 en mm
DESCASC
Precipitaciones de 18:00 a 24:00 en mm
DESCASC
11-12-2019 10.7 (00:20) 5.1 (09:20) 7.9 10.28 (07:10) 4.17 (07:20) 4.4 0 4.2 0.2 0
10-12-2019 11.2 (15:30) 1.4 (07:50) 6.3 8.61 (21:20) 3.89 (23:20) 0 0 0 0 0
09-12-2019 9.9 (15:30) 2.5 (08:10) 6.2 10 (16:20) 3.33 (16:20) 0.4 0 0 0.4 0
08-12-2019 11.3 (12:10) 2.7 (00:00) 7 7.78 (07:40) 3.33 (12:30) 4 0 0 4 0
07-12-2019 13.3 (15:10) 2.7 (00:00) 8 3.89 (12:30) 2.22 (12:30) 0 0 0 0 0
06-12-2019 11.2 (15:40) 0.9 (00:00) 6 3.89 (13:50) 1.94 (13:50) 0 0 0 0 0
05-12-2019 11.4 (14:30) 3.3 (00:00) 7.3 8.33 (06:10) 3.61 (16:30) 0 0 0 0 0
04-12-2019 11.8 (15:20) -0.6 (-00:0) 5.6 17.78 (19:30) 5.28 (16:20) 0 0 0 0 0
03-12-2019 5.3 (16:30) 0.1 (00:00) 2.7 6.39 (00:50) 3.33 (14:20) 2.2 1.6 0.6 0 0
02-12-2019 7.8 (11:50) 3.5 (00:00) 5.7 10.83 (14:40) 4.44 (14:30) 1.4 0 0.2 0.6 0.6
01-12-2019 7.9 (21:30) 4.2 (00:00) 6 8.61 (22:50) 3.61 (22:50) 0.4 0 0.2 0 0.2
30-11-2019 11.1 (15:20) 6.3 (00:00) 8.7 8.33 (15:20) 3.61 (15:20) 7.4 0 0 7.2 0.2
29-11-2019 16.3 (15:30) 7.3 (00:00) 11.8 6.67 (01:50) 2.78 (02:30) 0.2 0 0.2 0 0
28-11-2019 12.9 (14:30) 10 (00:00) 11.4 7.78 (10:10) 2.78 (01:10) 1.6 0 0 0 1.6
27-11-2019 11.8 (10:30) 8.3 (00:00) 10.1 9.17 (01:30) 3.61 (05:30) 2.6 0 0 1.8 0.8
26-11-2019 15 (19:30) 8.4 (00:00) 11.7 10.83 (21:20) 3.61 (03:00) 0.4 0 0.2 0 0.2
25-11-2019 15.8 (15:00) 5.5 (00:00) 10.7 6.94 (23:40) 3.33 (23:00) 0.2 0 0.2 0 0
24-11-2019 10.4 (14:10) 3.2 (00:00) 6.8 9.44 (21:10) 4.17 (22:10) 1.6 0 0 0 1.6
23-11-2019 9.5 (00:10) 5.4 (00:00) 7.5 10.83 (13:20) 4.17 (11:10) 0.6 0 0.6 0 0
22-11-2019 10.6 (15:50) 2.9 (00:00) 6.8 13.89 (13:20) 6.67 (12:10) 3.2 0 0 3.2 0
21-11-2019 9.1 (14:50) 2.6 (00:00) 5.9 3.89 (07:20) 2.5 (16:00) 0.2 0 0 0.2 0
20-11-2019 7 (13:20) 0.6 (00:00) 3.8 7.78 (11:50) 4.17 (12:00) 0.2 0 0 0 0.2
19-11-2019 10.1 (14:10) 0.2 (00:00) 5.2 6.67 (14:30) 2.5 (07:00) 0 0 0 0 0
18-11-2019 7.8 (14:50) 3.5 (00:00) 5.7 9.72 (12:50) 3.89 (16:10) 4.6 3.8 0.6 0.2 0
17-11-2019 7.4 (17:10) 3 (00:00) 5.2 8.61 (18:20) 4.17 (18:20) 0.8 0 0 0 0.8
16-11-2019 7.3 (16:10) 0.1 (00:00) 3.7 8.61 (18:00) 3.61 (18:00) 0.2 0.2 0 0 0
15-11-2019 3.7 (15:10) 1.2 (00:00) 2.5 6.39 (08:00) 3.06 (08:00) 12.4 1.2 3.6 7.2 0.4

Gráficas

Temp. máximas Temp. mínimas Temp. medias Precipitaciones Rachas de viento máximas Velocidades máximas media en intervalos de 10 minutos

Datos horarios

Fecha y hora oficial Temperatura (ºC) Velocidad del viento (km/h) Dirección del viento Racha (km/h) Dirección de racha Precipitación (mm) Presión (hPa) Tendencia (hPa) Humedad (%)
2019-12-14 23:00:00 10.8 6 Norte 19 Noroeste 0 -- -- 73
2019-12-14 22:00:00 11.1 5 Norte 20 Norte 0 -- -- 70
2019-12-14 21:00:00 11.4 10 Nordeste 18 Norte 0 -- -- 67
2019-12-14 20:00:00 11.5 7 Norte 44 Norte 0 -- -- 68
2019-12-14 19:00:00 11.4 6 Noroeste 26 Norte 0 -- -- 71
2019-12-14 18:00:00 11.3 6 Norte 22 Noroeste 0 -- -- 72
2019-12-14 17:00:00 11.5 9 Noroeste 24 Noroeste 0 -- -- 71
2019-12-14 16:00:00 12.3 5 Norte 24 Sudoeste 0 -- -- 67
2019-12-14 15:00:00 13 11 Sur 31 Sur 0 -- -- 60
2019-12-14 14:00:00 12 13 Sur 28 Sudoeste 0 -- -- 63
2019-12-14 13:00:00 11.5 8 Sur 23 Sur 0 -- -- 66
2019-12-14 12:00:00 11.7 8 Noroeste 19 Oeste 0 -- -- 68
2019-12-14 11:00:00 10.6 7 Norte 23 Noroeste 0 -- -- 75
2019-12-14 10:00:00 10 7 Norte 26 Norte 0 -- -- 76
2019-12-14 09:00:00 9.9 8 Norte 26 Norte 0 -- -- 76
2019-12-14 08:00:00 9.6 9 Norte 24 Noroeste 0 -- -- 76
2019-12-14 07:00:00 9.1 7 Noroeste 24 Norte 0 -- -- 78
2019-12-14 06:00:00 9.1 10 Norte 31 Norte 0 -- -- 77
2019-12-14 05:00:00 9.2 10 Norte 26 Noroeste 0 -- -- 76
2019-12-14 04:00:00 9.2 11 Noroeste 35 Noroeste 0 -- -- 74
2019-12-14 03:00:00 9.9 13 Noroeste 33 Oeste 0 -- -- 72
2019-12-14 02:00:00 9.9 12 Norte 24 Noroeste 0 -- -- 75
2019-12-14 01:00:00 10.5 12 Noroeste 29 Noroeste 0 -- -- 77
2019-12-14 00:00:00 10.8 10 Norte 27 Noroeste 0 -- -- 77
2019-12-13 23:00:00 11.5 13 Norte 35 Noroeste 0 -- -- 76
2019-12-13 22:00:00 12 17 Noroeste 41 Norte 0 -- -- 75
2019-12-13 21:00:00 12.3 12 Noroeste 33 Norte 0 -- -- 76
2019-12-13 20:00:00 12.8 8 Norte 23 Noroeste 0 -- -- 75
2019-12-13 19:00:00 13.6 6 Norte 28 Norte 0 -- -- 73
2019-12-13 18:00:00 14.3 11 Norte 26 Noroeste 0 -- -- 72
2019-12-13 17:00:00 13.3 12 Noroeste 32 Noroeste 0 -- -- 80
2019-12-13 16:00:00 13.1 8 Norte 22 Noroeste 0 -- -- 81
2019-12-13 15:00:00 13.8 8 Norte 22 Noroeste 0 -- -- 75
2019-12-13 14:00:00 12.7 7 Norte 24 Noroeste 0 -- -- 79
2019-12-13 13:00:00 12.2 9 Norte 35 Noroeste 0 -- -- 79
2019-12-13 12:00:00 11.7 12 Norte 27 Noroeste 0 -- -- 80
2019-12-13 11:00:00 11.4 13 Norte 30 Norte 0.2 -- -- 82
2019-12-13 10:00:00 10.6 11 Norte 31 Noroeste 0.6 -- -- 89
2019-12-13 09:00:00 10.7 12 Norte 33 Noroeste 0.6 -- -- 88
2019-12-13 08:00:00 11.2 12 Norte 36 Noroeste 0.2 -- -- 85
2019-12-13 07:00:00 12 12 Norte 28 Noroeste 0 -- -- 79
2019-12-13 06:00:00 12 12 Norte 27 Noroeste 0 -- -- 79
2019-12-13 05:00:00 11.6 9 Norte 28 Norte 0 -- -- 82
2019-12-13 04:00:00 11.3 9 Norte 27 Norte 0 -- -- 83
2019-12-13 03:00:00 11.1 12 Noroeste 27 Noroeste 0.2 -- -- 86
2019-12-13 02:00:00 11.1 13 Noroeste 34 Noroeste 0 -- -- 86
2019-12-13 01:00:00 10.7 11 Norte 35 Noroeste 0.8 -- -- 88
2019-12-13 00:00:00 10.1 11 Norte 28 Noroeste 0.6 -- -- 90
2019-12-12 23:00:00 9.9 12 Norte 31 Noroeste 1.2 -- -- 89
2019-12-12 22:00:00 9.6 10 Norte 26 Noroeste 0.8 -- -- 89
2019-12-12 21:00:00 9.3 9 Norte 25 Oeste 0.2 -- -- 89
2019-12-12 20:00:00 8.6 8 Norte 30 Noroeste 1.4 -- -- 91
2019-12-12 19:00:00 8.6 10 Norte 27 Noroeste 0.6 -- -- 89
2019-12-12 18:00:00 8.2 10 Norte 28 Noroeste 0.4 -- -- 90
2019-12-12 17:00:00 7.9 10 Norte 26 Noroeste 1 -- -- 89
2019-12-12 16:00:00 7.6 9 Norte 26 Nordeste 1.2 -- -- 89
2019-12-12 15:00:00 7.5 9 Norte 33 Noroeste 0.6 -- -- 87
2019-12-12 14:00:00 7.2 8 Norte 26 Oeste 0.6 -- -- 85
2019-12-12 13:00:00 7.4 7 Norte 29 Noroeste 0 -- -- 83
2019-12-12 12:00:00 7.6 7 Noroeste 24 Oeste 0 -- -- 79
2019-12-12 11:00:00 6.6 7 Noroeste 22 Noroeste 0.2 -- -- 85
2019-12-12 10:00:00 6.7 9 Noroeste 27 Noroeste 0 -- -- 82
2019-12-12 09:00:00 6.3 8 Norte 22 Noroeste 0 -- -- 82
2019-12-12 08:00:00 6 9 Noroeste 22 Noroeste 0 -- -- 82
2019-12-12 07:00:00 5.7 8 Noroeste 27 Noroeste 0 -- -- 81
2019-12-12 06:00:00 5.6 8 Noroeste 25 Noroeste 0 -- -- 80
2019-12-12 05:00:00 5.5 8 Norte 20 Oeste 0 -- -- 79
2019-12-12 04:00:00 5.5 4 Norte 29 Noroeste 0 -- -- 80
2019-12-12 03:00:00 5.8 7 Norte 19 Norte 0 -- -- 77
2019-12-12 02:00:00 5.6 6 Noroeste 22 Oeste 0 -- -- 79
2019-12-12 01:00:00 6 8 Norte 26 Norte 0 -- -- 76
2019-12-12 00:00:00 5.7 10 Norte 23 Norte 0 -- -- 78
2019-12-11 23:00:00 5.6 5 Norte 20 Norte 0 -- -- 78
2019-12-11 22:00:00 6 6 Norte 20 Norte 0 -- -- 75
2019-12-11 21:00:00 6.4 6 Norte 22 Norte 0 -- -- 73
2019-12-11 20:00:00 6.6 6 Norte 20 Noroeste 0 -- -- 73
2019-12-11 19:00:00 7.5 6 Norte 18 Noroeste 0 -- -- 73
2019-12-11 18:00:00 7.2 6 Norte 13 Noroeste 0 -- -- 75
2019-12-11 17:00:00 7.8 4 Norte 14 Noroeste 0 -- -- 74
2019-12-11 16:00:00 8.3 7 Noroeste 21 Noroeste 0 -- -- 71
2019-12-11 15:00:00 9.5 6 Noroeste 18 Sudoeste 0 -- -- 62
2019-12-11 14:00:00 8.8 7 Sudoeste 17 Noroeste 0 -- -- 76
2019-12-11 13:00:00 6.9 4 Oeste 16 Oeste 0.2 -- -- 90
2019-12-11 12:00:00 5.9 3 Norte 10 Sudoeste 0.6 -- -- 92
2019-12-11 11:00:00 5.5 2 Noroeste 8 Oeste 0.6 -- -- 91
2019-12-11 10:00:00 5.3 3 Sudoeste 8 Oeste 1.2 -- -- 91
2019-12-11 09:00:00 5.2 5 Norte 25 Noroeste 1.4 -- -- 88
2019-12-11 08:00:00 6.5 12 Norte 37 Noroeste 0.4 -- -- 76
2019-12-11 07:00:00 9.8 15 Norte 36 Noroeste 0 -- -- 47
2019-12-11 06:00:00 9.6 13 Norte 30 Oeste 0 -- -- 47
2019-12-11 05:00:00 9.5 13 Noroeste 34 Noroeste 0 -- -- 48
2019-12-11 04:00:00 9.2 12 Norte 26 Oeste 0 -- -- 53
2019-12-11 03:00:00 9.1 5 Noroeste 19 Norte 0 -- -- 47
2019-12-11 02:00:00 10.3 8 Norte 24 Norte 0 -- -- 41
2019-12-11 01:00:00 10.5 11 Noroeste 26 Noroeste 0 -- -- 42
2019-12-11 00:00:00 10.4 12 Norte 28 Norte 0 -- -- 42
2019-12-10 23:00:00 10.3 10 Norte 28 Noroeste 0 -- -- 45
2019-12-10 22:00:00 9.6 11 Norte 31 Noroeste 0 -- -- 54
2019-12-10 21:00:00 9.9 10 Noroeste 24 Noroeste 0 -- -- 53
2019-12-10 20:00:00 9.6 8 Norte 23 Norte 0 -- -- 54
2019-12-10 19:00:00 9.9 10 Noroeste 25 Noroeste 0 -- -- 55
2019-12-10 18:00:00 9.8 10 Noroeste 28 Noroeste 0 -- -- 58
2019-12-10 17:00:00 9.1 5 Norte 10 Nordeste 0 -- -- 69
2019-12-10 16:00:00 10.6 4 Oeste 16 Oeste 0 -- -- 64
2019-12-10 15:00:00 10.4 5 Noroeste 14 Noroeste 0 -- -- 64
2019-12-10 14:00:00 10.2 8 Oeste 19 Sudoeste 0 -- -- 66
2019-12-10 13:00:00 9.2 9 Norte 21 Norte 0 -- -- 70
2019-12-10 12:00:00 8.3 9 Norte 19 Noroeste 0 -- -- 73
2019-12-10 11:00:00 6.2 7 Oeste 15 Oeste 0 -- -- 80
2019-12-10 10:00:00 3.9 2 Sur 9 Sur 0 -- -- 93
2019-12-10 09:00:00 6.1 6 Norte 15 Norte 0 -- -- 80
2019-12-10 08:00:00 2 4 Noroeste 9 Norte 0 -- -- 95
2019-12-10 07:00:00 3.8 7 Norte 10 Norte 0 -- -- 90
2019-12-10 06:00:00 3.5 6 Noroeste 11 Noroeste 0 -- -- 90
2019-12-10 05:00:00 4.7 6 Norte 10 Norte 0 -- -- 84
2019-12-10 04:00:00 5.3 4 Oeste 6 Oeste 0 -- -- 87
2019-12-10 03:00:00 2.8 3 Noroeste 10 Oeste 0 -- -- 92
2019-12-10 02:00:00 4.1 6 Norte 13 Sudoeste 0 -- -- 90
2019-12-10 01:00:00 5.7 7 Sudoeste 17 Norte 0 -- -- 84
2019-12-10 00:00:00 7.2 3 Nordeste 15 Norte 0 -- -- 80
2019-12-09 23:00:00 7.5 5 Norte 17 Norte 0 -- -- 79
2019-12-09 22:00:00 7.9 8 Norte 23 Norte 0 -- -- 78
2019-12-09 21:00:00 7.9 8 Norte 15 Norte 0 -- -- 77
2019-12-09 20:00:00 8 8 Norte 21 Norte 0 -- -- 77
2019-12-09 19:00:00 8.5 5 Oeste 21 Noroeste 0 -- -- 71
2019-12-09 18:00:00 8.6 6 Norte 25 Noroeste 0.2 -- -- 72
2019-12-09 17:00:00 8.8 9 Norte 36 Norte 0 -- -- 76
2019-12-09 16:00:00 9.8 8 Norte 28 Norte 0 -- -- 69
2019-12-09 15:00:00 9.7 4 Oeste 15 Oeste 0 -- -- 72
2019-12-09 14:00:00 8.9 3 Noroeste 10 Noroeste 0 -- -- 77
2019-12-09 13:00:00 7.8 5 Sudoeste 12 Noroeste 0.2 -- -- 84
2019-12-09 12:00:00 7.5 6 Norte 17 Norte 0 -- -- 75
2019-12-09 11:00:00 6 4 Nordeste 17 Norte 0 -- -- 82
2019-12-09 10:00:00 5.3 6 Norte 15 Norte 0 -- -- 81
2019-12-09 09:00:00 4.3 8 Norte 20 Norte 0 -- -- 85
2019-12-09 08:00:00 3.2 4 Norte 9 Norte 0 -- -- 88
2019-12-09 07:00:00 4.2 4 Norte 14 Noroeste 0 -- -- 85
2019-12-09 06:00:00 5.4 8 Nordeste 17 Nordeste 0 -- -- 83
2019-12-09 05:00:00 5.6 5 Norte 19 Noroeste 0 -- -- 85
2019-12-09 04:00:00 6.3 8 Norte 22 Norte 0 -- -- 87
2019-12-09 03:00:00 6.8 9 Norte 20 Noroeste 0 -- -- 86
2019-12-09 02:00:00 6.4 5 Norte 21 Noroeste 0 -- -- 87
2019-12-09 01:00:00 7 8 Norte 18 Norte 0 -- -- 87
2019-12-09 00:00:00 7.2 7 Norte 14 Nordeste 0 -- -- 88
2019-12-08 23:00:00 7.2 5 Norte 15 Norte 0 -- -- 89
2019-12-08 22:00:00 7.7 5 Norte 12 Noroeste 0 -- -- 93
2019-12-08 21:00:00 7.9 2 Nordeste 7 Noroeste 0 -- -- 93
2019-12-08 20:00:00 8 2 Norte 10 Oeste 0 -- -- 93
2019-12-08 19:00:00 8.6 3 Oeste 6 Oeste 0 -- -- 93
2019-12-08 18:00:00 8.3 2 Noroeste 9 Norte 0 -- -- 93
2019-12-08 17:00:00 8.2 2 Norte 7 Oeste 0.2 -- -- 94
2019-12-08 16:00:00 8.3 2 Norte 8 Noroeste 1 -- -- 93
2019-12-08 15:00:00 8.2 2 Norte 11 Noroeste 0.8 -- -- 93
2019-12-08 14:00:00 8.4 6 Oeste 25 Noroeste 1.8 -- -- 89
2019-12-08 13:00:00 9.6 10 Norte 24 Norte 0.2 -- -- 85
2019-12-08 12:00:00 11.2 8 Norte 20 Oeste 0 -- -- 71
2019-12-08 11:00:00 10 7 Norte 21 Noroeste 0 -- -- 78
2019-12-08 10:00:00 8.8 6 Norte 19 Noroeste 0 -- -- 80
2019-12-08 09:00:00 8.6 5 Noroeste 23 Noroeste 0 -- -- 80
2019-12-08 08:00:00 8 8 Norte 28 Norte 0 -- -- 81
2019-12-08 07:00:00 8.2 8 Norte 24 Norte 0 -- -- 79
2019-12-08 06:00:00 8.2 6 Noroeste 17 Noroeste 0 -- -- 80
2019-12-08 05:00:00 7.8 6 Norte 19 Norte 0 -- -- 81
2019-12-08 04:00:00 3.8 5 Oeste 15 Oeste 0 -- -- 95
2019-12-08 03:00:00 3.2 2 Norte 12 Oeste 0 -- -- 93
2019-12-08 02:00:00 4.1 0 Calma 13 Nordeste 0 -- -- 89
2019-12-08 01:00:00 5.8 4 Norte 15 Oeste 0 -- -- 92
2019-12-08 00:00:00 6.4 6 Norte 13 Norte 0 -- -- 85
2019-12-07 23:00:00 8 4 Norte 13 Norte 0 -- -- 78
2019-12-07 22:00:00 6.5 5 Norte 8 Norte 0 -- -- 88
2019-12-07 21:00:00 6 4 Nordeste 10 Nordeste 0 -- -- 89
2019-12-07 20:00:00 6.2 3 Norte 5 Norte 0 -- -- 88
2019-12-07 19:00:00 6.7 0 Calma 8 Norte 0 -- -- 84
2019-12-07 18:00:00 9.1 4 Norte 10 Noroeste 0 -- -- 75
2019-12-07 17:00:00 11.4 0 Calma 10 Oeste 0 -- -- 70
2019-12-07 16:00:00 12.9 6 Sudoeste 13 Oeste 0 -- -- 66
2019-12-07 15:00:00 12.8 5 Sudoeste 12 Sudoeste 0 -- -- 68
2019-12-07 14:00:00 11.7 5 Sudoeste 12 Sudoeste 0 -- -- 71
2019-12-07 13:00:00 10.8 5 Sudoeste 14 Sudoeste 0 -- -- 73
2019-12-07 12:00:00 10.3 5 Sudoeste 11 Noroeste 0 -- -- 76
2019-12-07 11:00:00 8 5 Sur 9 Sudoeste 0 -- -- 86
2019-12-07 10:00:00 6 0 Calma 9 Oeste 0 -- -- 94
2019-12-07 09:00:00 3.6 0 Calma 4 Norte 0 -- -- 96
2019-12-07 08:00:00 3.1 3 Nordeste 9 Noroeste 0 -- -- 94
2019-12-07 07:00:00 4.8 7 Noroeste 10 Noroeste 0 -- -- 94
2019-12-07 06:00:00 3.8 3 Noroeste 8 Norte 0 -- -- 95
2019-12-07 05:00:00 3.6 3 Norte 5 Norte 0 -- -- 93
2019-12-07 04:00:00 4.4 3 Norte 9 Norte 0 -- -- 91
2019-12-07 03:00:00 5.7 2 Noroeste 5 Oeste 0 -- -- 93
2019-12-07 02:00:00 5.4 3 Nordeste 3 Norte 0 -- -- 94
2019-12-07 01:00:00 5.5 0 Calma 8 Oeste 0 -- -- 94
2019-12-07 00:00:00 5.6 2 Norte 6 Nordeste 0 -- -- 93
2019-12-06 23:00:00 4.5 4 Nordeste 6 Norte 0 -- -- 93
2019-12-06 22:00:00 4.8 2 Norte 8 Nordeste 0 -- -- 93
2019-12-06 21:00:00 5.6 6 Nordeste 9 Nordeste 0 -- -- 90
2019-12-06 20:00:00 6 6 Nordeste 8 Norte 0 -- -- 91
2019-12-06 19:00:00 5.7 5 Nordeste 8 Nordeste 0 -- -- 89
2019-12-06 18:00:00 7 2 Nordeste 6 Sudeste 0 -- -- 86
2019-12-06 17:00:00 8.8 2 Sur 9 Sudeste 0 -- -- 80
2019-12-06 16:00:00 10 5 Sur 12 Sur 0 -- -- 75
2019-12-06 15:00:00 10.2 5 Sur 10 Sur 0 -- -- 73
2019-12-06 14:00:00 9.3 6 Sur 14 Sur 0 -- -- 76
2019-12-06 13:00:00 8.7 4 Sur 8 Sur 0 -- -- 78
2019-12-06 12:00:00 7.2 4 Sur 9 Oeste 0 -- -- 83
2019-12-06 11:00:00 5.7 0 Calma 6 Sur 0 -- -- 91
2019-12-06 10:00:00 3.9 2 Este 5 Sudoeste 0 -- -- 96
2019-12-06 09:00:00 1.5 0 Calma 8 Noroeste 0 -- -- 97
2019-12-06 08:00:00 1.2 2 Nordeste 7 Nordeste 0 -- -- 96
2019-12-06 07:00:00 1 0 Calma 4 Norte 0 -- -- 96
2019-12-06 06:00:00 1.8 0 Calma 6 Norte 0 -- -- 96
2019-12-06 05:00:00 2.2 5 Norte 7 Norte 0 -- -- 95
2019-12-06 04:00:00 1.8 3 Norte 10 Noroeste 0 -- -- 94
2019-12-06 03:00:00 3.2 3 Noroeste 9 Nordeste 0 -- -- 91
2019-12-06 02:00:00 3.2 5 Nordeste 9 Noroeste 0 -- -- 91
2019-12-06 01:00:00 2.9 3 Noroeste 9 Norte 0 -- -- 91
2019-12-06 00:00:00 3.3 4 Nordeste 8 Noroeste 0 -- -- 91
2019-12-05 23:00:00 4.3 3 Norte 6 Nordeste 0 -- -- 86
2019-12-05 22:00:00 6.4 5 Sudoeste 26 Nordeste 0 -- -- 80
2019-12-05 21:00:00 6 4 Nordeste 18 Norte 0 -- -- 82
2019-12-05 20:00:00 7.7 5 Nordeste 25 Nordeste 0 -- -- 78
2019-12-05 19:00:00 8 10 Norte 23 Norte 0 -- -- 76
2019-12-05 18:00:00 8.2 5 Sudoeste 23 Norte 0 -- -- 75
2019-12-05 17:00:00 8.9 5 Sudoeste 22 Nordeste 0 -- -- 72
2019-12-05 16:00:00 10.6 4 Nordeste 24 Este 0 -- -- 66
2019-12-05 15:00:00 11.1 5 Norte 17 Noroeste 0 -- -- 64
2019-12-05 14:00:00 10.3 5 Nordeste 24 Norte 0 -- -- 68
2019-12-05 13:00:00 8.7 7 Oeste 14 Noroeste 0 -- -- 76
2019-12-05 12:00:00 8 3 Norte 16 Oeste 0 -- -- 78
2019-12-05 11:00:00 7.5 5 Noroeste 17 Nordeste 0 -- -- 77
2019-12-05 10:00:00 6.8 4 Noroeste 17 Norte 0 -- -- 80
2019-12-05 09:00:00 5.9 3 Sudoeste 16 Oeste 0 -- -- 90
2019-12-05 08:00:00 5.5 7 Sudoeste 17 Noroeste 0 -- -- 91
2019-12-05 07:00:00 6 5 Sur 30 Oeste 0 -- -- 88
2019-12-05 06:00:00 6.2 8 Noroeste 21 Noroeste 0 -- -- 86
2019-12-05 05:00:00 6.1 3 Sur 23 Oeste 0 -- -- 86
2019-12-05 04:00:00 6.6 10 Norte 23 Oeste 0 -- -- 82
2019-12-05 03:00:00 6.7 6 Noroeste 28 Noroeste 0 -- -- 87
2019-12-05 02:00:00 7 7 Noroeste 27 Oeste 0 -- -- 84
2019-12-05 01:00:00 6.7 8 Sudoeste 27 Norte 0 -- -- 82
2019-12-05 00:00:00 6.4 7 Noroeste 24 Noroeste 0 -- -- 83
2019-12-04 23:00:00 6.4 5 Noroeste 17 Noroeste 0 -- -- 90
2019-12-04 22:00:00 6.6 9 Oeste 23 Noroeste 0 -- -- 85
2019-12-04 21:00:00 6.8 9 Noroeste 40 Noroeste 0 -- -- 82
2019-12-04 20:00:00 6.8 8 Sudoeste 64 Norte 0 -- -- 83
2019-12-04 19:00:00 6.8 12 Sur 49 Norte 0 -- -- 75
2019-12-04 18:00:00 7.8 7 Sudeste 33 Este 0 -- -- 74
2019-12-04 17:00:00 9.4 9 Norte 39 Nordeste 0 -- -- 72
2019-12-04 16:00:00 10.8 17 Nordeste 33 Nordeste 0 -- -- 66
2019-12-04 15:00:00 11.3 5 Sur 11 Sur 0 -- -- 67
2019-12-04 14:00:00 7.9 7 Oeste 12 Oeste 0 -- -- 78
2019-12-04 13:00:00 6.9 3 Sur 8 Oeste 0 -- -- 79
2019-12-04 12:00:00 5 4 Sur 8 Sur 0 -- -- 83
2019-12-04 11:00:00 3.8 4 Sudeste 7 Sur 0 -- -- 87
2019-12-04 10:00:00 1.3 3 Sur 6 Oeste 0 -- -- 95
2019-12-04 09:00:00 0.1 0 Calma 6 Sudeste 0 -- -- 96
2019-12-04 08:00:00 0.3 4 Noroeste 8 Noroeste 0 -- -- 94
2019-12-04 07:00:00 -0.4 4 Norte 6 Noroeste 0 -- -- 96
2019-12-04 06:00:00 -0.1 2 Norte 9 Noroeste 0 -- -- 95
2019-12-04 05:00:00 -0.4 2 Nordeste 8 Nordeste 0 -- -- 95
2019-12-04 04:00:00 -0.5 3 Norte 8 Norte 0 -- -- 95
2019-12-04 03:00:00 -0.4 3 Nordeste 6 Nordeste 0 -- -- 94
2019-12-04 02:00:00 -0.4 4 Nordeste 9 Nordeste 0 -- -- 94
2019-12-04 01:00:00 0 0 Calma 5 Nordeste 0 -- -- 93
2019-12-04 00:00:00 0.1 3 Nordeste 5 Nordeste 0 -- -- 92
2019-12-03 23:00:00 0.4 3 Norte 8 Nordeste 0 -- -- 91
2019-12-03 22:00:00 1.3 4 Nordeste 9 Nordeste 0 -- -- 89
2019-12-03 21:00:00 1.3 4 Nordeste 10 Este 0 -- -- 90
2019-12-03 20:00:00 1.8 4 Nordeste 11 Nordeste 0 -- -- 87
2019-12-03 19:00:00 1.8 6 Nordeste 9 Nordeste 0 -- -- 88
2019-12-03 18:00:00 3.4 6 Nordeste 12 Nordeste 0 -- -- 81
2019-12-03 17:00:00 5.1 3 Este 10 Este 0 -- -- 75
2019-12-03 16:00:00 5.2 5 Este 16 Nordeste 0 -- -- 72
2019-12-03 15:00:00 4.7 10 Nordeste 21 Norte 0 -- -- 74
2019-12-03 14:00:00 4.8 9 Nordeste 17 Norte 0 -- -- 78
2019-12-03 13:00:00 4.6 5 Sudeste 20 Nordeste 0 -- -- 75
2019-12-03 12:00:00 4.1 7 Sudoeste 11 Noroeste 0 -- -- 85
2019-12-03 11:00:00 3.5 6 Sudoeste 17 Oeste 0 -- -- 92
2019-12-03 10:00:00 3 6 Sur 19 Sudoeste 0 -- -- 94
2019-12-03 09:00:00 2.5 6 Oeste 11 Oeste 0 -- -- 94
2019-12-03 08:00:00 2.3 3 Norte 9 Sudoeste 0.4 -- -- 94
2019-12-03 07:00:00 2.7 4 Oeste 16 Noroeste 0.2 -- -- 90
2019-12-03 06:00:00 2.8 8 Noroeste 20 Noroeste 0.2 -- -- 90
2019-12-03 05:00:00 3.1 8 Noroeste 21 Noroeste 0.2 -- -- 88
2019-12-03 04:00:00 3.3 6 Noroeste 20 Noroeste 0 -- -- 87
2019-12-03 03:00:00 3.3 8 Oeste 19 Oeste 0.6 -- -- 86
2019-12-03 02:00:00 3.2 7 Noroeste 19 Oeste 0.2 -- -- 90
2019-12-03 01:00:00 3.6 7 Noroeste 23 Oeste 0.4 -- -- 85
2019-12-03 00:00:00 3.5 6 Noroeste 33 Oeste 0.2 -- -- 88
2019-12-02 23:00:00 3.7 9 Noroeste 21 Oeste 0.4 -- -- 85
2019-12-02 22:00:00 4.1 8 Noroeste 23 Noroeste 0 -- -- 81
2019-12-02 21:00:00 4 7 Oeste 27 Oeste 0 -- -- 81
2019-12-02 20:00:00 4.2 8 Norte 25 Oeste 0 -- -- 76
2019-12-02 19:00:00 4.4 9 Norte 31 Sudoeste 0 -- -- 72
2019-12-02 18:00:00 5 8 Noroeste 28 Noroeste 0 -- -- 77
2019-12-02 17:00:00 5.4 15 Norte 34 Norte 0 -- -- 77
2019-12-02 16:00:00 6.1 13 Norte 35 Nordeste 0 -- -- 79
2019-12-02 15:00:00 6.8 8 Norte 39 Noroeste 0 -- -- 77
2019-12-02 14:00:00 7.1 7 Noroeste 26 Sudeste 0.6 -- -- 85
2019-12-02 13:00:00 7.3 6 Sur 29 Nordeste 0 -- -- 85
2019-12-02 12:00:00 7.7 6 Norte 28 Nordeste 0 -- -- 78
2019-12-02 11:00:00 7.4 11 Sudoeste 36 Sudoeste 0 -- -- 80
2019-12-02 10:00:00 6.2 7 Sur 19 Este 0.2 -- -- 92
2019-12-02 09:00:00 6.3 5 Sudoeste 14 Sudoeste 0 -- -- 89
2019-12-02 08:00:00 6 6 Oeste 14 Oeste 0 -- -- 87
2019-12-02 07:00:00 5 4 Oeste 19 Este 0 -- -- 92
2019-12-02 06:00:00 6.5 4 Norte 23 Norte 0 -- -- 83
2019-12-02 05:00:00 5.5 4 Sudeste 14 Sur 0 -- -- 90
2019-12-02 04:00:00 6.2 6 Este 23 Este 0 -- -- 85
2019-12-02 03:00:00 6.4 7 Este 33 Nordeste 0 -- -- 85
2019-12-02 02:00:00 6.3 8 Sudoeste 22 Noroeste 0 -- -- 87
2019-12-02 01:00:00 7.1 12 Nordeste 27 Este 0 -- -- 82
2019-12-02 00:00:00 7.2 9 Nordeste 27 Nordeste 0 -- -- 83
2019-12-01 23:00:00 7.4 8 Este 31 Nordeste 0 -- -- 80
2019-12-01 22:00:00 7.8 9 Nordeste 26 Norte 0 -- -- 83
2019-12-01 21:00:00 7.2 4 Nordeste 15 Norte 0 -- -- 86
2019-12-01 20:00:00 7.7 5 Norte 14 Norte 0 -- -- 86
2019-12-01 19:00:00 6.5 0 Calma 25 Nordeste 0.2 -- -- 93
2019-12-01 18:00:00 7.3 10 Nordeste 21 Norte 0 -- -- 85
2019-12-01 17:00:00 6.9 3 Sudoeste 6 Sudeste 0 -- -- 94
2019-12-01 16:00:00 7.1 4 Sur 7 Sur 0 -- -- 95
2019-12-01 15:00:00 7.1 3 Sur 6 Sur 0 -- -- 95
2019-12-01 14:00:00 6.7 5 Sur 9 Sur 0 -- -- 96
2019-12-01 13:00:00 6.9 6 Sur 10 Sur 0 -- -- 96
2019-12-01 12:00:00 5.7 4 Sur 7 Sur 0 -- -- 96
2019-12-01 11:00:00 5.3 2 Sudoeste 5 Sur 0 -- -- 96
2019-12-01 10:00:00 4.7 4 Sudoeste 5 Sudoeste 0 -- -- 96
2019-12-01 09:00:00 4.8 3 Sur 12 Sur 0.2 -- -- 93
2019-12-01 08:00:00 4.7 0 Calma 9 Noroeste 0 -- -- 94
2019-12-01 07:00:00 4.2 2 Noroeste 8 Norte 0 -- -- 94
2019-12-01 06:00:00 4.6 5 Nordeste 8 Nordeste 0 -- -- 93
2019-12-01 05:00:00 5.1 3 Sudeste 14 Norte 0 -- -- 87
2019-12-01 04:00:00 6.2 6 Norte 15 Norte 0 -- -- 84
2019-12-01 03:00:00 5.5 5 Norte 11 Norte 0 -- -- 88
2019-12-01 02:00:00 6.2 6 Norte 10 Norte 0 -- -- 88
2019-12-01 01:00:00 7.2 7 Norte 13 Nordeste 0 -- -- 84
2019-12-01 00:00:00 7.6 5 Norte 15 Norte 0 -- -- 84
2019-11-30 23:00:00 8.2 8 Norte 16 Norte 0 -- -- 79
2019-11-30 22:00:00 7.9 6 Norte 16 Norte 0 -- -- 82
2019-11-30 21:00:00 6.8 5 Norte 11 Norte 0 -- -- 88
2019-11-30 20:00:00 7.3 5 Norte 12 Norte 0 -- -- 86
2019-11-30 19:00:00 7.8 5 Norte 13 Sur 0.2 -- -- 90
2019-11-30 18:00:00 8.5 5 Sur 17 Oeste 2.4 -- -- 92
2019-11-30 17:00:00 9.6 13 Nordeste 27 Nordeste 0.8 -- -- 84
2019-11-30 16:00:00 10.4 3 Sur 30 Norte 3.8 -- -- 92
2019-11-30 15:00:00 10.9 4 Sur 11 Sur 0 -- -- 92
2019-11-30 14:00:00 10.3 6 Sur 9 Sur 0.2 -- -- 93
2019-11-30 13:00:00 10 5 Sur 9 Sudeste 0 -- -- 90
2019-11-30 12:00:00 9.4 2 Sur 19 Sudoeste 0 -- -- 90
2019-11-30 11:00:00 8.8 3 Sudeste 10 Sudoeste 0 -- -- 93
2019-11-30 10:00:00 7.7 2 Sudeste 7 Sur 0 -- -- 93
2019-11-30 09:00:00 6.9 4 Sudeste 11 Sur 0 -- -- 93
2019-11-30 08:00:00 6.8 3 Sur 12 Sudoeste 0 -- -- 93
2019-11-30 07:00:00 7.8 8 Sur 18 Oeste 0 -- -- 92
2019-11-30 06:00:00 7.7 9 Noroeste 18 Oeste 0 -- -- 95
2019-11-30 05:00:00 7.4 3 Sur 5 Sur 0 -- -- 96
2019-11-30 04:00:00 7.3 2 Nordeste 5 Sur 0 -- -- 96
2019-11-30 03:00:00 7.4 2 Oeste 8 Noroeste 0 -- -- 96
2019-11-30 02:00:00 7.4 0 Calma 9 Oeste 0 -- -- 95
2019-11-30 01:00:00 7 4 Este 10 Nordeste 0 -- -- 96
2019-11-30 00:00:00 7.3 0 Calma 5 Nordeste 0 -- -- 94
2019-11-29 23:00:00 7.6 2 Nordeste 8 Nordeste 0 -- -- 94
2019-11-29 22:00:00 7.7 2 Nordeste 6 Nordeste 0 -- -- 92
2019-11-29 21:00:00 8.3 4 Nordeste 9 Nordeste 0 -- -- 91
2019-11-29 20:00:00 9 4 Nordeste 10 Nordeste 0 -- -- 87
2019-11-29 19:00:00 9.8 6 Nordeste 10 Nordeste 0 -- -- 83
2019-11-29 18:00:00 10.6 3 Norte 7 Norte 0 -- -- 80
2019-11-29 17:00:00 13.5 0 Calma 8 Sudoeste 0 -- -- 72
2019-11-29 16:00:00 15.9 3 Oeste 13 Sudoeste 0 -- -- 62
2019-11-29 15:00:00 15.8 4 Sudoeste 14 Oeste 0 -- -- 62
2019-11-29 14:00:00 15.4 6 Sudoeste 13 Sur 0 -- -- 67
2019-11-29 13:00:00 13.4 3 Sudoeste 10 Sur 0 -- -- 73
2019-11-29 12:00:00 13.3 4 Noroeste 7 Norte 0 -- -- 79
2019-11-29 11:00:00 11.5 2 Oeste 6 Oeste 0 -- -- 87
2019-11-29 10:00:00 10.6 5 Sudoeste 9 Sudoeste 0 -- -- 93
2019-11-29 09:00:00 10 2 Sudoeste 6 Nordeste 0 -- -- 95
2019-11-29 08:00:00 10.3 2 Noroeste 5 Sudoeste 0.2 -- -- 95
2019-11-29 07:00:00 10.6 0 Calma 9 Noroeste 0 -- -- 93
2019-11-29 06:00:00 10.9 2 Oeste 7 Norte 0 -- -- 92
2019-11-29 05:00:00 11.4 3 Norte 14 Noroeste 0 -- -- 92
2019-11-29 04:00:00 11.8 4 Norte 12 Norte 0 -- -- 89
2019-11-29 03:00:00 12.1 5 Noroeste 22 Noroeste 0 -- -- 87
2019-11-29 02:00:00 12.2 9 Noroeste 24 Noroeste 0 -- -- 85
2019-11-29 01:00:00 12 6 Norte 21 Norte 0 -- -- 85
2019-11-29 00:00:00 11.8 7 Norte 19 Norte 0 -- -- 84
2019-11-28 23:00:00 11.8 8 Norte 24 Noroeste 0.2 -- -- 84
2019-11-28 22:00:00 11.4 10 Norte 18 Norte 0.2 -- -- 88
2019-11-28 21:00:00 10.9 8 Norte 25 Norte 0.8 -- -- 89
2019-11-28 20:00:00 11.5 9 Norte 19 Norte 0.4 -- -- 84
2019-11-28 19:00:00 11.9 8 Norte 18 Norte 0 -- -- 79
2019-11-28 18:00:00 12.6 6 Noroeste 19 Norte 0 -- -- 73
2019-11-28 17:00:00 12.6 8 Norte 15 Noroeste 0 -- -- 73
2019-11-28 16:00:00 12.1 4 Norte 19 Noroeste 0 -- -- 80
2019-11-28 15:00:00 12.9 5 Noroeste 17 Sudoeste 0 -- -- 73
2019-11-28 14:00:00 12.6 6 Norte 26 Noroeste 0 -- -- 75
2019-11-28 13:00:00 12.4 9 Noroeste 24 Norte 0 -- -- 77
2019-11-28 12:00:00 12.5 8 Norte 20 Noroeste 0 -- -- 77
2019-11-28 11:00:00 12 8 Noroeste 28 Oeste 0 -- -- 79
2019-11-28 10:00:00 12.1 9 Noroeste 23 Norte 0 -- -- 79
2019-11-28 09:00:00 11.1 6 Norte 20 Norte 0 -- -- 81
2019-11-28 08:00:00 10.5 9 Norte 21 Noroeste 0 -- -- 83
2019-11-28 07:00:00 10.5 9 Norte 22 Norte 0 -- -- 83
2019-11-28 06:00:00 10.3 7 Norte 15 Noroeste 0 -- -- 81
2019-11-28 05:00:00 10.4 6 Norte 19 Norte 0 -- -- 81
2019-11-28 04:00:00 10.4 8 Norte 23 Norte 0 -- -- 80
2019-11-28 03:00:00 10.3 9 Norte 22 Noroeste 0 -- -- 81
2019-11-28 02:00:00 10.2 7 Norte 22 Noroeste 0 -- -- 80
2019-11-28 01:00:00 10.1 8 Norte 26 Norte 0 -- -- 80
2019-11-28 00:00:00 10.1 6 Norte 21 Noroeste 0 -- -- 79
2019-11-27 23:00:00 10.1 8 Norte 15 Noroeste 0 -- -- 80
2019-11-27 22:00:00 10 6 Norte 18 Norte 0 -- -- 83
2019-11-27 21:00:00 9.9 7 Norte 27 Norte 0 -- -- 84
2019-11-27 20:00:00 9.6 7 Norte 20 Noroeste 0.2 -- -- 88
2019-11-27 19:00:00 8.4 5 Norte 14 Norte 0.6 -- -- 90
2019-11-27 18:00:00 8.9 7 Norte 17 Norte 0.8 -- -- 87
2019-11-27 17:00:00 9.5 8 Norte 18 Norte 0.8 -- -- 87
2019-11-27 16:00:00 9.9 8 Norte 21 Oeste 0.2 -- -- 83
2019-11-27 15:00:00 11.2 7 Norte 19 Norte 0 -- -- 72
2019-11-27 14:00:00 11.2 8 Norte 31 Oeste 0 -- -- 72
2019-11-27 06:00:00 -- -- -- -- -- -- -- -- --
2019-11-27 05:00:00 9.7 8 Norte 27 Oeste 0 -- -- 73
2019-11-27 04:00:00 9.9 9 Norte 27 Oeste 0 -- -- 73
2019-11-27 03:00:00 10.1 6 Norte 23 Norte 0 -- -- 74
2019-11-27 02:00:00 10.7 7 Este 33 Oeste 0 -- -- 75
2019-11-27 01:00:00 11.1 8 Norte 19 Noroeste 0 -- -- 76
2019-11-27 00:00:00 11.4 6 Norte 24 Oeste 0 -- -- 79
2019-11-26 23:00:00 11.9 6 Norte 30 Noroeste 0.2 -- -- 83
2019-11-26 22:00:00 14 9 Norte 39 Oeste 0 -- -- 69
2019-11-26 21:00:00 14 8 Sur 29 Sur 0 -- -- 70
2019-11-26 20:00:00 14.5 9 Norte 28 Oeste 0 -- -- 70
2019-11-26 19:00:00 13.7 7 Nordeste 14 Norte 0 -- -- 76
2019-11-26 18:00:00 12.2 6 Sudeste 14 Este 0 -- -- 82
2019-11-26 17:00:00 12.2 2 Este 13 Sur 0 -- -- 82
2019-11-26 16:00:00 12.3 4 Sur 15 Sur 0 -- -- 83
2019-11-26 15:00:00 12.8 6 Sudeste 12 Sur 0 -- -- 82
2019-11-26 14:00:00 13.5 5 Sur 9 Sur 0 -- -- 79
2019-11-26 13:00:00 11.3 3 Sur 9 Sur 0 -- -- 86
2019-11-26 12:00:00 11.3 4 Sur 7 Sur 0 -- -- 89
2019-11-26 11:00:00 10.4 4 Sur 19 Nordeste 0.2 -- -- 87
2019-11-26 10:00:00 8.8 6 Oeste 15 Oeste 0 -- -- 88
2019-11-26 09:00:00 8.9 4 Norte 12 Sur 0 -- -- 88
2019-11-26 08:00:00 9.2 4 Noroeste 8 Oeste 0 -- -- 84
2019-11-26 07:00:00 8.4 2 Noroeste 15 Norte 0 -- -- 86
2019-11-26 06:00:00 12.1 7 Norte 22 Norte 0 -- -- 73
2019-11-26 05:00:00 11.5 6 Norte 17 Norte 0 -- -- 77
2019-11-26 04:00:00 12 8 Norte 22 Norte 0 -- -- 74
2019-11-26 03:00:00 11.9 13 Norte 30 Noroeste 0 -- -- 74
2019-11-26 02:00:00 11.4 12 Norte 31 Nordeste 0 -- -- 75
2019-11-26 01:00:00 11.6 13 Norte 32 Norte 0 -- -- 75
2019-11-26 00:00:00 11.3 11 Norte 25 Noroeste 0 -- -- 76
2019-11-25 23:00:00 11.4 12 Norte 22 Norte 0 -- -- 76
2019-11-25 22:00:00 11.2 8 Norte 17 Norte 0 -- -- 77
2019-11-25 21:00:00 11.6 9 Norte 18 Norte 0 -- -- 75
2019-11-25 20:00:00 12.2 7 Norte 16 Noroeste 0 -- -- 74
2019-11-25 19:00:00 12.9 7 Norte 15 Nordeste 0 -- -- 67
2019-11-25 18:00:00 12.4 5 Norte 12 Norte 0 -- -- 70
2019-11-25 17:00:00 13.7 2 Norte 10 Noroeste 0 -- -- 68
2019-11-25 16:00:00 14.2 6 Noroeste 23 Noroeste 0 -- -- 64
2019-11-25 15:00:00 15.8 6 Nordeste 24 Oeste 0 -- -- 62
2019-11-25 14:00:00 14.4 7 Norte 21 Noroeste 0 -- -- 71
2019-11-25 13:00:00 15.1 6 Oeste 21 Sur 0 -- -- 69
2019-11-25 12:00:00 13.5 8 Noroeste 19 Sudoeste 0 -- -- 76
2019-11-25 11:00:00 12.5 6 Noroeste 18 Norte 0 -- -- 78
2019-11-25 10:00:00 11.4 7 Noroeste 19 Oeste 0.2 -- -- 82
2019-11-25 09:00:00 8 5 Noroeste 17 Noroeste 0 -- -- 98
2019-11-25 08:00:00 5.9 6 Este 12 Sudoeste 0 -- -- 94
2019-11-25 07:00:00 6 3 Noroeste 14 Norte 0 -- -- 94
2019-11-25 06:00:00 6.3 6 Noroeste 15 Oeste 0 -- -- 94
2019-11-25 05:00:00 6.2 4 Este 10 Oeste 0 -- -- 92
2019-11-25 04:00:00 6.9 0 Calma 7 Sur 0 -- -- 93
2019-11-25 03:00:00 7 0 Calma 5 Sur 0 -- -- 94
2019-11-25 02:00:00 7.6 3 Sudeste 7 Nordeste 0 -- -- 92
2019-11-25 01:00:00 7.5 3 Sur 17 Sudoeste 0 -- -- 92
2019-11-25 00:00:00 10 5 Norte 23 Norte 0 -- -- 81
2019-11-24 23:00:00 9.8 7 Norte 31 Norte 0 -- -- 81
2019-11-24 22:00:00 8.9 11 Norte 34 Norte 1.4 -- -- 84
2019-11-24 21:00:00 8.6 9 Norte 21 Noroeste 0.2 -- -- 80
2019-11-24 20:00:00 9 9 Norte 29 Noroeste 0 -- -- 72
2019-11-24 19:00:00 8.9 10 Norte 28 Oeste 0 -- -- 69
2019-11-24 18:00:00 8.8 12 Norte 26 Norte 0 -- -- 69
2019-11-24 17:00:00 9.1 10 Noroeste 21 Noroeste 0 -- -- 67
2019-11-24 16:00:00 9.2 7 Norte 24 Noroeste 0 -- -- 67
2019-11-24 15:00:00 9.7 9 Noroeste 25 Oeste 0 -- -- 64
2019-11-24 14:00:00 10.1 8 Noroeste 23 Noroeste 0 -- -- 67
2019-11-24 13:00:00 8.5 7 Sudoeste 22 Oeste 0 -- -- 72
2019-11-24 12:00:00 7.1 5 Noroeste 18 Oeste 0 -- -- 77
2019-11-24 11:00:00 6 5 Norte 15 Oeste 0 -- -- 80
2019-11-24 10:00:00 5.3 4 Norte 11 Norte 0 -- -- 82
2019-11-24 09:00:00 4.8 6 Norte 12 Noroeste 0 -- -- 84
2019-11-24 08:00:00 3.3 5 Norte 12 Noroeste 0 -- -- 90
2019-11-24 07:00:00 3.5 3 Norte 14 Sudoeste 0 -- -- 88
2019-11-24 06:00:00 4.9 4 Sudoeste 12 Sudoeste 0 -- -- 83
2019-11-24 05:00:00 5.4 2 Norte 10 Norte 0 -- -- 82
2019-11-24 04:00:00 5.5 6 Norte 13 Norte 0 -- -- 83
2019-11-24 03:00:00 5.5 5 Norte 14 Noroeste 0 -- -- 84
2019-11-24 02:00:00 5.5 5 Noroeste 12 Noroeste 0 -- -- 85
2019-11-24 01:00:00 5.7 2 Noroeste 6 Noroeste 0 -- -- 86
2019-11-24 00:00:00 6.4 3 Sur 10 Norte 0 -- -- 78
2019-11-23 23:00:00 7.3 4 Nordeste 24 Noroeste 0 -- -- 75
2019-11-23 22:00:00 7.6 6 Oeste 22 Norte 0 -- -- 73
2019-11-23 21:00:00 8 10 Norte 30 Noroeste 0 -- -- 68
2019-11-23 20:00:00 7.8 11 Noroeste 27 Oeste 0 -- -- 71
2019-11-23 19:00:00 7.4 10 Norte 31 Noroeste 0 -- -- 75
2019-11-23 18:00:00 7.3 10 Noroeste 31 Noroeste 0 -- -- 76
2019-11-23 17:00:00 7.8 11 Noroeste 30 Oeste 0 -- -- 74
2019-11-23 16:00:00 8.3 11 Noroeste 35 Noroeste 0 -- -- 70
2019-11-23 15:00:00 8.7 11 Norte 33 Noroeste 0 -- -- 71
2019-11-23 14:00:00 7.8 11 Noroeste 39 Noroeste 0 -- -- 75
2019-11-23 13:00:00 8.4 11 Noroeste 31 Sudoeste 0 -- -- 69
2019-11-23 12:00:00 6.7 10 Norte 35 Noroeste 0 -- -- 77
2019-11-23 11:00:00 7.1 13 Norte 33 Oeste 0 -- -- 74
2019-11-23 10:00:00 5.9 9 Norte 30 Noroeste 0 -- -- 84
2019-11-23 09:00:00 5.4 11 Norte 26 Norte 0.2 -- -- 89
2019-11-23 08:00:00 5.5 9 Norte 27 Noroeste 0.2 -- -- 90
2019-11-23 07:00:00 5.7 9 Norte 23 Norte 0.2 -- -- 89
2019-11-23 06:00:00 6.5 9 Norte 27 Nordeste 0 -- -- 83
2019-11-23 05:00:00 7.1 9 Norte 26 Noroeste 0 -- -- 79
2019-11-23 04:00:00 7.2 9 Norte 24 Noroeste 0 -- -- 83
2019-11-23 03:00:00 8.6 8 Norte 26 Oeste 0 -- -- 75
2019-11-23 02:00:00 9.4 6 Noroeste 16 Oeste 0 -- -- 72
2019-11-23 01:00:00 9.1 5 Norte 20 Noroeste 0 -- -- 75
2019-11-23 00:00:00 9.4 6 Norte 19 Norte 0 -- -- 75
2019-11-22 23:00:00 8.8 6 Norte 16 Noroeste 0 -- -- 80
2019-11-22 22:00:00 8.9 5 Norte 16 Sudoeste 0 -- -- 79
2019-11-22 21:00:00 7.4 4 Norte 20 Sudoeste 0 -- -- 91
2019-11-22 20:00:00 8.1 4 Nordeste 15 Este 0 -- -- 89
2019-11-22 19:00:00 8.5 5 Nordeste 13 Este 0 -- -- 89
2019-11-22 18:00:00 8.9 7 Este 24 Sudeste 1.4 -- -- 87
2019-11-22 17:00:00 10.2 8 Este 36 Este 0.4 -- -- 81
2019-11-22 16:00:00 10.1 18 Este 39 Este 0 -- -- 79
2019-11-22 15:00:00 9.8 17 Sudeste 41 Sudeste 1.4 -- -- 81
2019-11-22 14:00:00 9.7 16 Este 50 Este 0 -- -- 77
2019-11-22 13:00:00 10.2 22 Este 42 Sudeste 0 -- -- 71
2019-11-22 12:00:00 9.7 24 Este 47 Este 0 -- -- 71
2019-11-22 11:00:00 8.8 19 Este 42 Este 0 -- -- 75
2019-11-22 10:00:00 8.3 22 Este 44 Sudeste 0 -- -- 77
2019-11-22 09:00:00 8.1 19 Este 38 Este 0 -- -- 76
2019-11-22 08:00:00 7.5 13 Este 30 Sudeste 0 -- -- 75
2019-11-22 07:00:00 6.9 12 Sudeste 27 Sudeste 0 -- -- 78
2019-11-22 06:00:00 6.3 6 Este 14 Este 0 -- -- 86
2019-11-22 05:00:00 3.2 2 Sudeste 8 Noroeste 0 -- -- 96
2019-11-22 04:00:00 3 7 Noroeste 12 Noroeste 0 -- -- 94
2019-11-22 03:00:00 3.5 4 Noroeste 11 Este 0 -- -- 92
2019-11-22 02:00:00 4.2 3 Sudeste 12 Este 0 -- -- 89
2019-11-22 01:00:00 4 3 Sudeste 12 Este 0 -- -- 93
2019-11-22 00:00:00 3.6 3 Este 8 Oeste 0 -- -- 93
2019-11-21 23:00:00 3.7 3 Sudeste 11 Oeste 0 -- -- 92
2019-11-21 22:00:00 3.3 3 Este 10 Oeste 0 -- -- 90
2019-11-21 21:00:00 4.6 5 Oeste 10 Oeste 0 -- -- 87
2019-11-21 20:00:00 4.8 4 Nordeste 9 Nordeste 0 -- -- 85
2019-11-21 19:00:00 5.1 7 Nordeste 10 Nordeste 0 -- -- 86
2019-11-21 18:00:00 5.4 4 Nordeste 8 Nordeste 0 -- -- 90
2019-11-21 17:00:00 6.4 5 Sur 12 Sur 0 -- -- 90
2019-11-21 16:00:00 8.4 9 Sur 13 Sur 0 -- -- 85
2019-11-21 15:00:00 8.6 7 Sur 11 Sudoeste 0 -- -- 86
2019-11-21 14:00:00 7.5 5 Sur 11 Sur 0 -- -- 95
2019-11-21 13:00:00 6.3 8 Sur 14 Sur 0.2 -- -- 96
2019-11-21 12:00:00 5.3 6 Sur 13 Sur 0 -- -- 96
2019-11-21 11:00:00 5.2 8 Sur 13 Sur 0 -- -- 96
2019-11-21 10:00:00 5.1 4 Nordeste 9 Nordeste 0 -- -- 98
2019-11-21 09:00:00 4 3 Sudeste 11 Sur 0 -- -- 97
2019-11-21 08:00:00 -- -- -- -- -- -- -- -- --
2019-11-21 07:00:00 -- -- -- -- -- -- -- -- --
2019-11-21 06:00:00 -- -- -- -- -- -- -- -- --
2019-11-21 05:00:00 -- -- -- -- -- -- -- -- --
2019-11-21 04:00:00 -- -- -- -- -- -- -- -- --
2019-11-21 03:00:00 -- -- -- -- -- -- -- -- --
2019-11-21 02:00:00 -- -- -- -- -- -- -- -- --
2019-11-21 01:00:00 -- -- -- -- -- -- -- -- --
2019-11-21 00:00:00 -- -- -- -- -- -- -- -- --
2019-11-20 23:00:00 -- -- -- -- -- -- -- -- --
2019-11-20 22:00:00 -- -- -- -- -- -- -- -- --
2019-11-20 21:00:00 -- -- -- -- -- -- -- -- --
2019-11-20 20:00:00 -- -- -- -- -- -- -- -- --
2019-11-20 19:00:00 4.6 3 Noroeste 9 Oeste 0 -- -- 91
2019-11-20 18:00:00 5 3 Noroeste 13 Sudeste 0 -- -- 88
2019-11-20 17:00:00 5.5 6 Sur 16 Sur 0 -- -- 87
2019-11-20 16:00:00 5.4 10 Sur 20 Sudeste 0 -- -- 86
2019-11-20 15:00:00 6.2 10 Sur 22 Sur 0 -- -- 82
2019-11-20 14:00:00 6.9 12 Sur 23 Sur 0 -- -- 79
2019-11-20 13:00:00 6.5 14 Sur 28 Sur 0 -- -- 78
2019-11-20 12:00:00 6.1 15 Sur 28 Sudeste 0 -- -- 79
2019-11-20 11:00:00 4.9 12 Sur 20 Sur 0 -- -- 84
2019-11-20 10:00:00 2.7 5 Sur 10 Sur 0 -- -- 94
2019-11-20 09:00:00 2 2 Nordeste 8 Noroeste 0 -- -- 95
2019-11-20 08:00:00 1.6 0 Calma 7 Oeste 0 -- -- 95
2019-11-20 07:00:00 1.3 0 Calma 5 Sudeste 0 -- -- 94
2019-11-20 06:00:00 1.1 2 Este 9 Noroeste 0 -- -- 94
2019-11-20 05:00:00 1.2 4 Noroeste 11 Este 0 -- -- 91
2019-11-20 04:00:00 1.3 2 Este 9 Norte 0 -- -- 90
2019-11-20 03:00:00 2 2 Norte 9 Nordeste 0 -- -- 88
2019-11-20 02:00:00 2.9 3 Norte 9 Norte 0 -- -- 84
2019-11-20 01:00:00 4.5 6 Norte 11 Oeste 0 -- -- 78
2019-11-20 00:00:00 2.9 3 Noroeste 13 Noroeste 0 -- -- 88
2019-11-19 23:00:00 6 4 Noroeste 15 Noroeste 0 -- -- 73
2019-11-19 22:00:00 6.2 3 Oeste 14 Norte 0 -- -- 74
2019-11-19 21:00:00 6.6 7 Norte 20 Noroeste 0 -- -- 72
2019-11-19 20:00:00 6.6 8 Norte 16 Norte 0 -- -- 72
2019-11-19 19:00:00 6.7 6 Norte 21 Nordeste 0 -- -- 73
2019-11-19 18:00:00 7 7 Norte 17 Noroeste 0 -- -- 72
2019-11-19 17:00:00 7.9 7 Norte 18 Noroeste 0 -- -- 69
2019-11-19 16:00:00 9.3 8 Noroeste 23 Oeste 0 -- -- 63
2019-11-19 15:00:00 10 5 Sudeste 24 Sudoeste 0 -- -- 62
2019-11-19 14:00:00 9.8 8 Noroeste 20 Oeste 0 -- -- 63
2019-11-19 13:00:00 8.8 8 Noroeste 18 Oeste 0 -- -- 65
2019-11-19 12:00:00 7.3 8 Sudoeste 13 Sudoeste 0 -- -- 72
2019-11-19 11:00:00 5.6 5 Sudoeste 9 Sur 0 -- -- 80
2019-11-19 10:00:00 3.2 0 Calma 11 Oeste 0 -- -- 95
2019-11-19 09:00:00 2 0 Calma 9 Oeste 0 -- -- 94
2019-11-19 08:00:00 0.3 3 Nordeste 9 Norte 0 -- -- 93
2019-11-19 07:00:00 2 9 Norte 13 Norte 0 -- -- 95
2019-11-19 06:00:00 1.8 6 Noroeste 10 Noroeste 0 -- -- 94
2019-11-19 05:00:00 2.3 5 Noroeste 8 Noroeste 0 -- -- 93
2019-11-19 04:00:00 2.1 2 Norte 9 Oeste 0 -- -- 92
2019-11-19 03:00:00 3.1 4 Norte 7 Norte 0 -- -- 95
2019-11-19 02:00:00 3.7 3 Noroeste 6 Noroeste 0 -- -- 91
2019-11-19 01:00:00 4.4 4 Noroeste 9 Nordeste 0 -- -- 88
2019-11-19 00:00:00 4.9 5 Nordeste 11 Nordeste 0 -- -- 85
2019-11-18 23:00:00 4.6 5 Nordeste 10 Nordeste 0 -- -- 89
2019-11-18 22:00:00 4.4 3 Norte 5 Norte 0 -- -- 89
2019-11-18 21:00:00 4.3 2 Norte 8 Oeste 0 -- -- 88
2019-11-18 20:00:00 3.5 5 Norte 17 Oeste 0 -- -- 88
2019-11-18 19:00:00 5.4 9 Noroeste 27 Noroeste 0 -- -- 78
2019-11-18 18:00:00 5.1 7 Norte 16 Noroeste 0 -- -- 82
2019-11-18 17:00:00 5.8 7 Oeste 31 Norte 0 -- -- 77
2019-11-18 16:00:00 6.6 14 Norte 28 Noroeste 0 -- -- 73
2019-11-18 15:00:00 7.6 13 Norte 29 Noroeste 0 -- -- 72
2019-11-18 14:00:00 6.8 10 Noroeste 30 Noroeste 0 -- -- 79
2019-11-18 13:00:00 6.7 9 Noroeste 35 Noroeste 0.2 -- -- 79
2019-11-18 12:00:00 5.6 10 Norte 26 Oeste 0.2 -- -- 85
2019-11-18 11:00:00 5.7 5 Noroeste 14 Noroeste 0 -- -- 85
2019-11-18 10:00:00 4.8 5 Noroeste 27 Nordeste 0.4 -- -- 86
2019-11-18 09:00:00 4.6 8 Noroeste 30 Norte 0 -- -- 85
2019-11-18 08:00:00 5 6 Norte 21 Noroeste 0 -- -- 83
2019-11-18 07:00:00 4.7 5 Noroeste 19 Noroeste 0 -- -- 88
2019-11-18 06:00:00 4.5 6 Norte 26 Norte 0.4 -- -- 89
2019-11-18 05:00:00 4.4 7 Norte 18 Noroeste 1 -- -- 91
2019-11-18 04:00:00 4 4 Norte 12 Noroeste 0.2 -- -- 93
2019-11-18 03:00:00 3.8 7 Oeste 16 Oeste 1.4 -- -- 92
2019-11-18 02:00:00 3.8 4 Oeste 17 Oeste 0.8 -- -- 92
2019-11-18 01:00:00 4.2 5 Norte 17 Norte 0 -- -- 88
2019-11-18 00:00:00 4.6 6 Noroeste 24 Noroeste 0 -- -- 86
2019-11-17 23:00:00 5.5 11 Norte 29 Norte 0.4 -- -- 85
2019-11-17 22:00:00 6.1 7 Norte 20 Norte 0.4 -- -- 86
2019-11-17 21:00:00 5.3 0 Calma 8 Oeste 0 -- -- 88
2019-11-17 20:00:00 5.2 5 Noroeste 10 Oeste 0 -- -- 88
2019-11-17 19:00:00 7.3 7 Norte 31 Norte 0 -- -- 75
2019-11-17 18:00:00 6.5 3 Nordeste 13 Oeste 0 -- -- 85
2019-11-17 17:00:00 7.2 3 Norte 9 Noroeste 0 -- -- 84
2019-11-17 16:00:00 7.1 4 Norte 17 Oeste 0 -- -- 86
2019-11-17 15:00:00 7.3 5 Norte 18 Noroeste 0 -- -- 84
2019-11-17 14:00:00 6.8 8 Norte 21 Norte 0 -- -- 85
2019-11-17 13:00:00 6.5 8 Norte 26 Oeste 0 -- -- 83
2019-11-17 12:00:00 6.2 11 Noroeste 23 Noroeste 0 -- -- 81
2019-11-17 11:00:00 5.6 10 Norte 26 Norte 0 -- -- 84
2019-11-17 10:00:00 5.3 9 Noroeste 27 Noroeste 0 -- -- 84
2019-11-17 09:00:00 5 7 Norte 26 Noroeste 0 -- -- 83
2019-11-17 08:00:00 4.9 10 Norte 24 Noroeste 0 -- -- 82
2019-11-17 07:00:00 4.9 9 Noroeste 25 Norte 0 -- -- 79
2019-11-17 06:00:00 4.9 10 Norte 30 Oeste 0 -- -- 76
2019-11-17 05:00:00 4.6 10 Norte 26 Norte 0 -- -- 76
2019-11-17 04:00:00 4.2 9 Norte 21 Noroeste 0 -- -- 79
2019-11-17 03:00:00 3.9 7 Norte 19 Oeste 0 -- -- 78
2019-11-17 02:00:00 3.5 5 Norte 14 Norte 0 -- -- 79
2019-11-17 01:00:00 3.2 5 Norte 9 Nordeste 0 -- -- 84
2019-11-17 00:00:00 3.5 3 Noroeste 7 Norte 0 -- -- 83
2019-11-16 23:00:00 3.3 3 Noroeste 8 Norte 0 -- -- 85
2019-11-16 22:00:00 3.6 5 Oeste 14 Norte 0 -- -- 81
2019-11-16 21:00:00 4.2 4 Oeste 17 Norte 0 -- -- 80
2019-11-16 20:00:00 5.6 6 Norte 21 Nordeste 0 -- -- 72
2019-11-16 19:00:00 5.7 12 Norte 29 Norte 0 -- -- 73
2019-11-16 18:00:00 6.2 13 Norte 31 Norte 0 -- -- 72
2019-11-16 17:00:00 6.4 12 Norte 23 Norte 0 -- -- 70
2019-11-16 16:00:00 7.2 7 Noroeste 18 Noroeste 0 -- -- 72
2019-11-16 15:00:00 6.4 6 Noroeste 22 Noroeste 0 -- -- 73
2019-11-16 14:00:00 4.6 5 Noroeste 19 Oeste 0 -- -- 80
2019-11-16 13:00:00 4.4 5 Norte 20 Noroeste 0 -- -- 80
2019-11-16 12:00:00 3.7 6 Norte 21 Oeste 0 -- -- 83
2019-11-16 11:00:00 3.6 7 Norte 23 Noroeste 0 -- -- 80
2019-11-16 10:00:00 3.5 8 Noroeste 19 Noroeste 0 -- -- 81
2019-11-16 09:00:00 2.4 6 Norte 14 Norte 0 -- -- 87
2019-11-16 08:00:00 2 6 Norte 14 Norte 0 -- -- 90
2019-11-16 07:00:00 1.9 5 Norte 14 Norte 0 -- -- 90
2019-11-16 06:00:00 1.6 3 Norte 12 Noroeste 0 -- -- 93
2019-11-16 05:00:00 0.2 3 Noroeste 9 Noroeste 0 -- -- 94
2019-11-16 04:00:00 1.1 4 Oeste 10 Oeste 0 -- -- 93
2019-11-16 03:00:00 1.1 4 Norte 10 Norte 0.2 -- -- 94
2019-11-16 02:00:00 1.1 4 Norte 11 Norte 0 -- -- 94
2019-11-16 01:00:00 1.8 4 Noroeste 7 Noroeste 0 -- -- 95
2019-11-16 00:00:00 2.1 3 Sudoeste 12 Sudoeste 0 -- -- 95
2019-11-15 23:00:00 2.1 3 Oeste 10 Oeste 0 -- -- 94
2019-11-15 22:00:00 2.6 4 Noroeste 10 Noroeste 0.2 -- -- 92
2019-11-15 21:00:00 2.6 3 Noroeste 9 Noroeste 0.2 -- -- 91
2019-11-15 20:00:00 2.7 4 Noroeste 15 Noroeste 0 -- -- 90
2019-11-15 19:00:00 2.8 6 Norte 12 Nordeste 0 -- -- 92
2019-11-15 18:00:00 2.9 3 Noroeste 8 Noroeste 0 -- -- 92
2019-11-15 17:00:00 2.9 3 Noroeste 13 Noroeste 0.6 -- -- 91
2019-11-15 16:00:00 3.3 5 Norte 16 Noroeste 0.6 -- -- 90
2019-11-15 15:00:00 3.5 5 Norte 13 Norte 0.8 -- -- 91
2019-11-15 14:00:00 2.6 6 Norte 22 Sudoeste 3.8 -- -- 93
2019-11-15 13:00:00 2.3 8 Noroeste 23 Oeste 1.4 -- -- 91
2019-11-15 12:00:00 3.2 6 Norte 21 Norte 0.2 -- -- 93
2019-11-15 11:00:00 2.6 8 Norte 23 Noroeste 0.6 -- -- 92
2019-11-15 10:00:00 1.9 7 Norte 22 Noroeste 1 -- -- 92
2019-11-15 09:00:00 1.9 6 Norte 22 Noroeste 0.4 -- -- 93
2019-11-15 08:00:00 2.2 11 Norte 23 Norte 0.8 -- -- 93
2019-11-15 07:00:00 2.2 8 Norte 21 Noroeste 0.6 -- -- 92
2019-11-15 06:00:00 1.5 8 Norte 16 Oeste 1 -- -- 93
2019-11-15 05:00:00 1.8 7 Noroeste 21 Noroeste 0.2 -- -- 92
2019-11-15 04:00:00 2.3 7 Norte 19 Norte 0 -- -- 88
2019-11-15 03:00:00 2.5 6 Norte 14 Noroeste 0 -- -- 85
2019-11-15 02:00:00 2.1 5 Norte 12 Norte 0 -- -- 91
2019-11-15 01:00:00 2 3 Norte 10 Norte 0 -- -- 91
2019-11-15 00:00:00 2.8 3 Norte 11 Norte 0 -- -- 91